Share

Allen, KS

11:03 AM CDT on April 23, 2014 (GMT -0500)
East Emporia Kansas (KKSEMPOR3) Elev 1106 ft | 38.39 °N, 96.12 °W | Change Station

Current weather conditions updated 60 seconds ago

Clear
Clear
69.3 °F
Feels Like 69.3 °F
N
9.9
Wind Variable Wind from SSE
Sunrise 6:37 AM
Sunset 8:09 PM
Moon Waning Crescent

Today is forecast to be Much Warmer than yesterday. Thunderstorms developing late tonight.

Pressure 29.88 in
Visibility 10.0 miles
Clouds Clear
Dew Point 45 °F
Humidity 41%
Rainfall 0.00 in
Snow Depth Not available.
UV 7 out of 16
Pollen 11.10 out of 12
Air Quality Not available.
Flu Activity No Activity
METAR KEMP 231553Z AUTO 14018G23KT 10SM CLR 21/04 A2988 RMK AO2 SLP116 T02060039

More Conditions Fewer Conditions

Pressure 29.88 in
Visibility 10.0 miles
Clouds Clear
Dew Point 45 °F
Humidity 41%
Rainfall 0.00 in
Snow Depth Not available.
UV 7 out of 16
Pollen 11.10 out of 12
Air Quality Not available.
Flu Activity No Activity
METAR KEMP 231553Z AUTO 14018G23KT 10SM CLR 21/04 A2988 RMK AO2 SLP116 T02060039

More Conditions Fewer Conditions

10-Day Weather Forecast

Almanac

Astronomy

Apr. 23, 2014 Rise Set
Actual Time 6:37 AM CDT 8:09 PM CDT
Civil Twilight 6:09 AM CDT 8:37 PM CDT
Nautical Twilight 5:36 AM CDT 9:11 PM CDT
Astronomical Twilight 5:00 AM CDT 9:47 PM CDT
Moon 3:06 AM CDT 2:23 PM CDT
Length of Visible Light 14h 27m
Length of Day
13h 31m
Tomorrow will be 2m 17s longer.
Waning Crescent, 35% of the Moon is Illuminated
Today
Waning Crescent
Apr 29
New
May 6
First Quarter
May 14
Full
May 21
Last Quarter

Today's Extremes

State Highs State Lows

Community

  • spring flowers
    spring flowers
  • Earth Day Spectrum Ove' Blue
    Earth Day Spectrum Ove' Blue
  • BARN B&W
    BARN B&W
  • April Sunset
    April Sunset
  • Waiting..
    Waiting..

WunderPhotos

Upload Photos

1,704,319 photos uploaded!

Nearby

Snow Depth

Station Depth Elevation
No new snow has been reported.

Coastal Water Temperatures

Place Temperature
No Stations Reporting

Earthquake Activity

City Distance Mag. Time & Date
Medford, Oklahoma 162 miles 2.9 3:07 AM CDT
2014-04-19
Minimum magnitude displayed is 2.5.

Nearby Weather Stations

Station Location Temp. Dew Point Humidity Wind Precip. Elev Updated Type
East Emporia Kansas, Emporia, KS 69.3 °F 45 °F 41% SSE  at  9.9 mph - / hr 1106 ft 11:02 AM CDT Normal
RAWS TALLGRASS PRAIRIE KS, Strong City, KS 68 °F 37 °F 32% South  at  15 mph 0.00 in / hr 1230 ft 10:30 AM CDT MADIS
Adam's Place, OSAGE CITY, KS 66.2 °F 28 °F 24% SSW  at  6.0 mph 0.00 in / hr 1086 ft 11:03 AM CDT Rapid Fire
MesoWest DWIGHT , Dwight, KS 52 °F - - North  at  - 0.00 in / hr 1443 ft 7:10 AM CDT MADIS
Skydive Kansas, Osage City, KS 69.1 °F 43 °F 39% SE  at  13.9 mph 0.00 in / hr 1089 ft 12:03 PM EDT Rapid Fire

Show More Stations Show Fewer Stations

What do you think?

We're not finished. Please let us know what you like, what you don't like, and what you are still missing.